createdAt,value
2019-01-19T00:02:35.210Z,12.20
2019-01-19T00:05:59.398Z,10.73
2019-01-19T00:09:01.653Z,11.03
2019-01-19T00:12:27.718Z,11.93
2019-01-19T00:15:59.135Z,13.77
2019-01-19T00:19:52.620Z,14.00
2019-01-19T00:23:45.054Z,10.63
2019-01-19T00:26:51.689Z,11.77
2019-01-19T00:30:08.622Z,11.27
2019-01-19T00:33:19.358Z,12.53
2019-01-19T00:36:44.786Z,10.27
2019-01-19T00:40:18.589Z,13.03
2019-01-19T00:43:09.991Z,12.70
2019-01-19T00:46:34.681Z,13.23
2019-01-19T00:49:40.157Z,12.80
2019-01-19T00:52:52.079Z,11.97
2019-01-19T00:56:09.339Z,10.97
2019-01-19T00:59:02.823Z,12.10
2019-01-19T01:02:45.130Z,15.53
2019-01-19T01:05:32.104Z,12.77
2019-01-19T01:09:12.140Z,15.47
2019-01-19T01:12:40.642Z,14.83
2019-01-19T01:15:59.722Z,12.23
2019-01-19T01:19:20.376Z,11.57
2019-01-19T01:23:01.673Z,13.83
2019-01-19T01:26:11.231Z,11.57
2019-01-19T01:29:36.111Z,10.70
2019-01-19T01:33:01.039Z,11.90
2019-01-19T01:36:19.313Z,12.23
2019-01-19T01:39:25.847Z,12.13
2019-01-19T01:42:25.283Z,11.77
2019-01-19T01:45:31.987Z,11.83
2019-01-19T01:48:58.626Z,11.10
2019-01-19T01:52:15.549Z,11.73
2019-01-19T01:55:04.655Z,10.70
2019-01-19T01:58:06.557Z,10.83
2019-01-19T02:01:22.879Z,11.97
2019-01-19T02:05:16.315Z,10.83
2019-01-19T02:08:43.563Z,10.23
2019-01-19T02:12:00.033Z,15.27
2019-01-19T02:15:17.645Z,10.53
2019-01-19T02:18:54.023Z,12.07
2019-01-19T02:22:31.812Z,9.87
2019-01-19T02:26:05.095Z,13.07
2019-01-19T02:29:21.488Z,11.27
2019-01-19T02:33:16.319Z,9.30
2019-01-19T02:36:59.085Z,9.23
2019-01-19T02:40:44.333Z,11.77
2019-01-19T02:43:42.259Z,8.90
2019-01-19T02:47:12.641Z,9.13
2019-01-19T02:50:22.261Z,8.70
2019-01-19T02:53:34.377Z,8.07
2019-01-19T02:56:47.843Z,9.20
2019-01-19T02:59:34.886Z,9.47
2019-01-19T03:02:46.628Z,8.40
2019-01-19T03:06:04.842Z,9.80
2019-01-19T03:09:14.854Z,9.80
2019-01-19T03:12:55.576Z,11.30
2019-01-19T03:16:19.013Z,9.93
2019-01-19T03:19:26.268Z,9.33
2019-01-19T03:22:59.819Z,8.97
2019-01-19T03:26:06.436Z,9.57
2019-01-19T03:29:25.118Z,10.43
2019-01-19T03:32:55.890Z,12.10
2019-01-19T03:36:23.436Z,10.90
2019-01-19T03:39:46.143Z,10.57
2019-01-19T03:42:58.427Z,10.90
2019-01-19T03:46:15.092Z,10.37
2019-01-19T03:49:29.973Z,9.33
2019-01-19T03:52:47.532Z,8.67
2019-01-19T03:56:28.803Z,9.73
2019-01-19T04:00:09.433Z,10.53
2019-01-19T04:03:52.322Z,9.60
2019-01-19T04:06:43.628Z,9.43
2019-01-19T04:10:02.482Z,10.93
2019-01-19T04:13:24.675Z,10.90
2019-01-19T04:17:17.905Z,11.60
2019-01-19T04:20:21.847Z,11.17
2019-01-19T04:23:06.686Z,9.93
2019-01-19T04:26:06.128Z,11.87
2019-01-19T04:28:38.245Z,10.10
2019-01-19T04:31:10.202Z,14.03
2019-01-19T04:33:42.061Z,12.27
2019-01-19T04:36:21.497Z,11.60
2019-01-19T04:38:48.006Z,12.43
2019-01-19T04:41:19.854Z,11.80
2019-01-19T04:43:51.832Z,13.17
2019-01-19T04:46:23.646Z,12.40
2019-01-19T04:48:55.667Z,14.13
2019-01-19T04:51:27.501Z,15.13
2019-01-19T04:53:59.381Z,15.07
2019-01-19T04:56:31.176Z,15.13
2019-01-19T04:59:03.014Z,16.27
2019-01-19T05:01:35.044Z,16.90
2019-01-19T05:04:07.161Z,15.77
2019-01-19T05:06:39.024Z,15.93
2019-01-19T05:09:11.225Z,13.60
2019-01-19T05:11:43.096Z,15.97
2019-01-19T05:14:14.959Z,12.37
2019-01-19T05:16:46.951Z,12.83
2019-01-19T05:19:18.760Z,13.53
2019-01-19T05:21:50.579Z,12.53
2019-01-19T05:24:22.427Z,11.90
2019-01-19T05:26:54.382Z,13.70
2019-01-19T05:29:26.224Z,15.73
2019-01-19T05:31:57.986Z,11.60
2019-01-19T05:34:29.932Z,16.03
2019-01-19T05:37:01.697Z,12.33
2019-01-19T05:39:33.540Z,10.77
2019-01-19T05:42:05.342Z,14.47
2019-01-19T05:44:37.154Z,13.70
2019-01-19T05:47:08.972Z,11.87
2019-01-19T05:49:40.953Z,10.20
2019-01-19T05:52:12.952Z,11.47
2019-01-19T05:54:44.816Z,11.77
2019-01-19T05:57:16.617Z,9.73
2019-01-19T05:59:48.447Z,9.17
2019-01-19T06:02:21.864Z,13.37
2019-01-19T06:04:53.818Z,9.60
2019-01-19T06:07:25.644Z,9.07
2019-01-19T06:09:57.518Z,7.17
2019-01-19T06:12:29.290Z,10.60
2019-01-19T06:15:01.227Z,9.87
2019-01-19T06:17:33.235Z,7.17
2019-01-19T06:20:06.324Z,7.87
2019-01-19T06:22:38.228Z,7.03
2019-01-19T06:25:11.361Z,11.07
2019-01-19T06:27:43.706Z,9.23
2019-01-19T06:30:21.869Z,11.67
2019-01-19T06:32:53.990Z,8.33
2019-01-19T06:35:25.979Z,8.87
2019-01-19T06:37:57.882Z,7.60
2019-01-19T06:40:29.633Z,10.10
2019-01-19T06:43:02.560Z,16.33
2019-01-19T06:45:35.088Z,12.93
2019-01-19T06:48:07.495Z,12.70
2019-01-19T06:50:39.365Z,13.00
2019-01-19T06:53:11.225Z,16.10
2019-01-19T06:55:43.054Z,13.27
2019-01-19T06:58:14.984Z,14.37
2019-01-19T07:00:46.873Z,12.87
2019-01-19T07:03:18.731Z,12.33
2019-01-19T07:05:50.683Z,11.13
2019-01-19T07:08:22.578Z,11.10
2019-01-19T07:10:54.513Z,10.97
2019-01-19T07:13:26.418Z,13.17
2019-01-19T07:15:58.211Z,15.83
2019-01-19T07:18:30.194Z,15.40
2019-01-19T07:21:02.081Z,14.90
2019-01-19T07:23:33.916Z,13.37
2019-01-19T07:26:05.783Z,13.97
2019-01-19T07:28:37.607Z,11.60
2019-01-19T07:31:09.384Z,12.27
2019-01-19T07:33:41.241Z,13.07
2019-01-19T07:36:13.116Z,11.80
2019-01-19T07:38:45.054Z,13.60
2019-01-19T07:41:17.195Z,13.73
2019-01-19T07:43:52.679Z,11.30
2019-01-19T07:46:25.404Z,11.37
2019-01-19T07:48:57.280Z,13.20
2019-01-19T07:51:29.241Z,9.00
2019-01-19T07:54:01.176Z,11.40
2019-01-19T07:56:34.136Z,11.40
2019-01-19T07:59:06.242Z,9.70
2019-01-19T08:01:38.084Z,9.10
2019-01-19T08:04:10.182Z,8.30
2019-01-19T08:07:17.478Z,8.67
2019-01-19T08:10:08.774Z,9.90
2019-01-19T08:12:40.650Z,9.87
2019-01-19T08:15:16.498Z,8.60
2019-01-19T08:17:57.339Z,9.07
2019-01-19T08:20:29.190Z,8.17
2019-01-19T08:23:02.831Z,10.10
2019-01-19T08:25:38.930Z,8.97
2019-01-19T08:28:11.036Z,7.00
2019-01-19T08:30:42.853Z,6.03
2019-01-19T08:33:17.100Z,6.77
2019-01-19T08:35:49.299Z,5.63
2019-01-19T08:38:22.499Z,6.97
2019-01-19T08:40:56.734Z,6.00
2019-01-19T08:43:40.224Z,6.10
2019-01-19T08:46:12.176Z,6.33
2019-01-19T08:48:44.146Z,7.23
2019-01-19T08:51:17.374Z,6.53
2019-01-19T08:53:49.278Z,6.33
2019-01-19T08:56:23.366Z,5.93
2019-01-19T08:58:55.256Z,6.77
2019-01-19T09:01:28.337Z,5.83
2019-01-19T09:04:01.389Z,6.67
2019-01-19T09:06:33.258Z,7.40
2019-01-19T09:09:07.420Z,6.43
2019-01-19T09:11:39.467Z,6.43
2019-01-19T09:14:11.322Z,5.77
2019-01-19T09:16:44.369Z,5.17
2019-01-19T09:19:16.443Z,5.70
2019-01-19T09:21:49.728Z,4.03
2019-01-19T09:24:31.434Z,5.00
2019-01-19T09:27:04.488Z,4.23
2019-01-19T09:29:37.647Z,4.73
2019-01-19T09:32:09.912Z,5.37
2019-01-19T09:34:41.742Z,4.13
2019-01-19T09:37:15.089Z,4.80
2019-01-19T09:39:46.840Z,4.93
2019-01-19T09:42:18.745Z,4.70
2019-01-19T09:44:50.856Z,4.93
2019-01-19T09:47:22.782Z,3.67
2019-01-19T09:49:54.622Z,3.43
2019-01-19T09:52:28.251Z,4.40
2019-01-19T09:55:00.319Z,3.77
2019-01-19T09:57:34.377Z,4.33
2019-01-19T10:00:10.471Z,5.43
2019-01-19T10:02:51.384Z,3.43
2019-01-19T10:05:23.864Z,3.33
2019-01-19T10:07:55.755Z,3.07
2019-01-19T10:10:31.284Z,5.20
2019-01-19T10:13:03.525Z,2.73
2019-01-19T10:15:35.400Z,3.53
2019-01-19T10:18:09.259Z,4.13
2019-01-19T10:20:41.350Z,3.00
2019-01-19T10:23:13.238Z,3.73
2019-01-19T10:25:47.261Z,3.40
2019-01-19T10:28:19.140Z,2.87
2019-01-19T10:30:52.618Z,3.30
2019-01-19T10:33:24.885Z,2.77
2019-01-19T10:35:58.461Z,2.33
2019-01-19T10:38:30.538Z,2.50
2019-01-19T10:41:03.935Z,2.27
2019-01-19T10:43:35.814Z,2.57
2019-01-19T10:46:07.727Z,3.67
2019-01-19T10:48:39.795Z,4.43
2019-01-19T10:51:12.041Z,3.65
2019-01-19T10:53:43.988Z,2.53
2019-01-19T10:56:15.987Z,2.33
2019-01-19T10:58:48.319Z,2.73
2019-01-19T11:01:20.312Z,2.40
2019-01-19T11:03:53.705Z,3.13
2019-01-19T11:06:25.570Z,3.40
2019-01-19T11:08:57.595Z,3.90
2019-01-19T11:11:29.513Z,3.57
2019-01-19T11:14:01.438Z,5.60
2019-01-19T11:16:33.295Z,4.90
2019-01-19T11:19:05.263Z,5.77
2019-01-19T11:21:37.323Z,2.20
2019-01-19T11:24:09.499Z,2.13
2019-01-19T11:26:41.574Z,3.23
2019-01-19T11:29:13.446Z,2.23
2019-01-19T11:31:45.504Z,2.77
2019-01-19T11:34:17.502Z,3.87
2019-01-19T11:36:49.695Z,3.30
2019-01-19T11:39:21.906Z,2.00
2019-01-19T11:41:53.928Z,3.10
2019-01-19T11:44:25.960Z,2.27
2019-01-19T11:46:58.116Z,2.30
2019-01-19T11:49:30.003Z,2.10
2019-01-19T11:52:01.938Z,2.70
2019-01-19T11:54:34.182Z,2.33
2019-01-19T11:57:17.420Z,2.83
2019-01-19T11:59:51.197Z,1.67
2019-01-19T12:02:23.046Z,2.10
2019-01-19T12:04:55.138Z,2.03
2019-01-19T12:07:27.203Z,2.37
2019-01-19T12:09:59.116Z,1.73
2019-01-19T12:12:31.328Z,4.03
2019-01-19T12:15:03.335Z,2.33
2019-01-19T12:17:35.480Z,1.63
2019-01-19T12:20:12.502Z,1.80
2019-01-19T12:22:44.515Z,2.60
2019-01-19T12:25:18.465Z,3.50
2019-01-19T12:27:50.424Z,3.20
2019-01-19T12:30:25.386Z,2.20
2019-01-19T12:32:57.297Z,2.00
2019-01-19T12:35:29.628Z,2.67
2019-01-19T12:38:01.800Z,1.77
2019-01-19T12:40:33.711Z,2.57
2019-01-19T12:43:18.621Z,3.00
2019-01-19T12:46:09.276Z,2.13
2019-01-19T12:48:41.220Z,1.93
2019-01-19T12:51:14.863Z,1.73
2019-01-19T12:53:46.860Z,2.90
2019-01-19T12:56:18.737Z,1.60
2019-01-19T12:58:50.908Z,2.53
2019-01-19T13:01:23.047Z,4.87
2019-01-19T13:03:55.143Z,2.83
2019-01-19T13:07:02.230Z,2.33
2019-01-19T13:09:56.634Z,1.93
2019-01-19T13:12:52.995Z,2.33
2019-01-19T13:16:15.789Z,3.53
2019-01-19T13:19:23.507Z,1.70
2019-01-19T13:23:17.044Z,2.00
2019-01-19T13:26:36.051Z,1.93
2019-01-19T13:30:02.753Z,2.93
2019-01-19T13:32:59.788Z,1.53
2019-01-19T13:36:32.693Z,1.37
2019-01-19T13:39:56.962Z,1.50
2019-01-19T13:43:26.118Z,1.80
2019-01-19T13:46:58.701Z,1.77
2019-01-19T13:50:26.438Z,1.57
2019-01-19T13:54:13.907Z,2.17
2019-01-19T13:57:29.382Z,2.00
2019-01-19T14:01:06.690Z,3.87
2019-01-19T14:04:36.798Z,1.20
2019-01-19T14:08:19.296Z,1.20
2019-01-19T14:11:44.392Z,1.40
2019-01-19T14:14:37.827Z,2.00
2019-01-19T14:17:56.732Z,4.17
2019-01-19T14:21:15.380Z,1.97
2019-01-19T14:24:09.633Z,2.67
2019-01-19T14:27:07.159Z,1.93
2019-01-19T14:30:32.270Z,1.10
2019-01-19T14:34:11.323Z,1.37
2019-01-19T14:37:39.326Z,2.17
2019-01-19T14:40:40.541Z,3.03
2019-01-19T14:44:18.582Z,1.57
2019-01-19T14:47:57.070Z,3.13
2019-01-19T14:51:34.172Z,1.60
2019-01-19T14:55:00.640Z,1.23
2019-01-19T14:58:07.109Z,2.43
2019-01-19T15:01:09.204Z,1.97
2019-01-19T15:04:32.440Z,1.77
2019-01-19T15:08:13.609Z,3.40
2019-01-19T15:11:52.748Z,1.67
2019-01-19T15:15:03.567Z,2.30
2019-01-19T15:18:04.472Z,1.53
2019-01-19T15:21:32.038Z,1.43
2019-01-19T15:24:42.439Z,2.17
2019-01-19T15:28:00.960Z,1.63
2019-01-19T15:31:31.970Z,2.87
2019-01-19T15:35:08.261Z,3.67
2019-01-19T15:38:32.639Z,2.13
2019-01-19T15:41:50.531Z,3.53
2019-01-19T15:45:06.079Z,3.50
2019-01-19T15:48:45.547Z,4.87
2019-01-19T15:51:56.935Z,2.87
2019-01-19T15:55:31.716Z,3.20
2019-01-19T15:58:58.941Z,3.23
2019-01-19T16:02:20.559Z,3.73
2019-01-19T16:05:59.565Z,3.90
2019-01-19T16:09:36.080Z,3.97
2019-01-19T16:13:20.229Z,9.33
2019-01-19T16:16:52.196Z,7.33
2019-01-19T16:20:32.184Z,3.30
2019-01-19T16:24:17.122Z,4.77
2019-01-19T16:27:40.404Z,3.70
2019-01-19T16:31:03.548Z,5.80
2019-01-19T16:34:37.210Z,3.83
2019-01-19T16:37:53.454Z,4.83
2019-01-19T16:41:52.994Z,6.07
2019-01-19T16:45:23.233Z,3.37
2019-01-19T16:48:45.783Z,4.17
2019-01-19T16:52:24.209Z,3.43
2019-01-19T16:55:45.549Z,3.80
2019-01-19T16:59:42.211Z,4.47
2019-01-19T17:03:02.611Z,3.83
2019-01-19T17:06:37.599Z,6.17
2019-01-19T17:10:05.711Z,5.50
2019-01-19T17:13:25.544Z,4.67
2019-01-19T17:16:34.036Z,4.53
2019-01-19T17:20:13.456Z,12.07
2019-01-19T17:23:09.790Z,5.03
2019-01-19T17:26:38.979Z,6.90
2019-01-19T17:29:35.632Z,12.00
2019-01-19T17:32:41.754Z,7.30
2019-01-19T17:36:30.766Z,6.20
2019-01-19T17:39:42.195Z,11.47
2019-01-19T17:43:14.317Z,10.17
2019-01-19T17:47:01.508Z,13.10
2019-01-19T17:50:31.893Z,16.57
2019-01-19T17:54:13.317Z,14.20
2019-01-19T17:57:33.090Z,16.57
2019-01-19T18:00:36.209Z,13.20
2019-01-19T18:03:49.364Z,10.80
2019-01-19T18:07:01.123Z,13.00
2019-01-19T18:10:24.740Z,10.60
2019-01-19T18:13:34.435Z,14.93
2019-01-19T18:17:20.634Z,13.70
2019-01-19T18:21:03.845Z,9.80
2019-01-19T18:24:33.551Z,9.47
2019-01-19T18:27:31.349Z,12.93
2019-01-19T18:31:08.229Z,12.40
2019-01-19T18:34:48.459Z,15.23
2019-01-19T18:38:35.669Z,13.03
2019-01-19T18:42:30.936Z,10.50
2019-01-19T18:46:08.015Z,10.30
2019-01-19T18:49:27.397Z,9.50
2019-01-19T18:52:31.712Z,9.27
2019-01-19T18:55:45.536Z,8.63
2019-01-19T18:59:17.074Z,7.87
2019-01-19T19:02:44.045Z,8.33
2019-01-19T19:06:20.193Z,8.87
2019-01-19T19:09:38.379Z,8.70
2019-01-19T19:13:00.116Z,8.40
2019-01-19T19:16:51.227Z,10.77
2019-01-19T19:20:03.028Z,10.33
2019-01-19T19:23:09.962Z,12.73
2019-01-19T19:26:43.695Z,10.30
2019-01-19T19:29:56.770Z,8.93
2019-01-19T19:33:20.304Z,11.30
2019-01-19T19:36:52.081Z,9.43
2019-01-19T19:40:15.555Z,9.70
2019-01-19T19:43:24.030Z,10.07
2019-01-19T19:46:28.575Z,7.97
2019-01-19T19:49:49.591Z,8.63
2019-01-19T19:52:27.779Z,8.10
2019-01-19T19:54:54.032Z,8.33
2019-01-19T19:57:26.226Z,10.07
2019-01-19T19:59:58.175Z,9.60
2019-01-19T20:02:33.153Z,7.10
2019-01-19T20:05:06.919Z,8.57
2019-01-19T20:07:42.818Z,7.77
2019-01-19T20:10:17.274Z,8.10
2019-01-19T20:12:48.719Z,9.50
2019-01-19T20:15:24.195Z,8.13
2019-01-19T20:17:56.263Z,10.13
2019-01-19T20:20:28.143Z,8.90
2019-01-19T20:23:00.252Z,7.57
2019-01-19T20:25:35.158Z,7.57
2019-01-19T20:28:08.712Z,10.03
2019-01-19T20:30:44.814Z,7.77
2019-01-19T20:33:18.887Z,9.13
2019-01-19T20:35:50.759Z,8.07
2019-01-19T20:38:22.791Z,9.03
2019-01-19T20:40:54.950Z,8.70
2019-01-19T20:43:26.935Z,9.13
2019-01-19T20:45:58.987Z,10.77
2019-01-19T20:48:31.333Z,9.13
2019-01-19T20:51:03.326Z,8.50
2019-01-19T20:53:35.852Z,11.07
2019-01-19T20:56:08.522Z,10.60
2019-01-19T20:58:40.404Z,10.40
2019-01-19T21:01:12.714Z,11.20
2019-01-19T21:03:44.791Z,13.10
2019-01-19T21:06:18.031Z,11.47
2019-01-19T21:08:50.289Z,9.33
2019-01-19T21:11:22.596Z,9.77
2019-01-19T21:13:54.874Z,10.17
2019-01-19T21:16:26.807Z,10.50
2019-01-19T21:18:59.049Z,10.53
2019-01-19T21:21:31.292Z,10.90
2019-01-19T21:24:03.516Z,9.87
2019-01-19T21:26:35.761Z,9.20
2019-01-19T21:29:07.724Z,10.53
2019-01-19T21:31:39.788Z,9.80
2019-01-19T21:34:12.045Z,11.20
2019-01-19T21:36:43.911Z,9.07
2019-01-19T21:39:15.796Z,8.93
2019-01-19T21:41:48.516Z,8.87
2019-01-19T21:44:20.546Z,9.77
2019-01-19T21:46:52.581Z,8.37
2019-01-19T21:49:24.563Z,9.20
2019-01-19T21:51:56.573Z,9.40
2019-01-19T21:54:29.508Z,9.50
2019-01-19T21:57:19.675Z,9.80
2019-01-19T21:59:51.782Z,12.63
2019-01-19T22:02:23.703Z,10.27
2019-01-19T22:04:55.634Z,8.73
2019-01-19T22:07:27.659Z,12.20
2019-01-19T22:09:59.770Z,11.40
2019-01-19T22:12:31.685Z,27.83
2019-01-19T22:15:04.442Z,17.73
2019-01-19T22:17:39.836Z,11.87
2019-01-19T22:20:12.715Z,11.10
2019-01-19T22:22:46.272Z,8.70
2019-01-19T22:25:18.574Z,9.03
2019-01-19T22:27:51.062Z,10.03
2019-01-19T22:30:25.355Z,8.70
2019-01-19T22:32:57.637Z,7.90
2019-01-19T22:35:30.601Z,7.30
2019-01-19T22:38:02.868Z,7.37
2019-01-19T22:40:35.394Z,7.23
2019-01-19T22:43:10.940Z,7.50
2019-01-19T22:45:43.324Z,6.73
2019-01-19T22:48:15.345Z,8.73
2019-01-19T22:50:47.454Z,8.63
2019-01-19T22:53:19.865Z,7.47
2019-01-19T22:55:51.894Z,6.87
2019-01-19T22:58:23.819Z,6.10
2019-01-19T23:01:31.485Z,9.90
2019-01-19T23:04:04.958Z,5.40
2019-01-19T23:06:37.122Z,5.77
2019-01-19T23:09:12.246Z,5.73
2019-01-19T23:11:44.704Z,6.33
2019-01-19T23:14:17.303Z,6.77
2019-01-19T23:16:49.275Z,7.67
2019-01-19T23:19:21.231Z,6.83
2019-01-19T23:21:53.300Z,6.67
2019-01-19T23:24:25.213Z,6.80
2019-01-19T23:27:04.059Z,8.47
2019-01-19T23:29:35.969Z,5.17
2019-01-19T23:32:07.847Z,6.67
2019-01-19T23:34:39.784Z,5.97
2019-01-19T23:37:11.846Z,6.53
2019-01-19T23:39:43.734Z,6.07
2019-01-19T23:42:15.567Z,10.33
2019-01-19T23:44:47.407Z,4.90
2019-01-19T23:47:19.401Z,7.00
2019-01-19T23:49:51.227Z,8.37
2019-01-19T23:52:23.154Z,6.27
2019-01-19T23:54:55.016Z,6.70
2019-01-19T23:57:27.046Z,7.37
2019-01-19T23:59:59.136Z,8.97
